Time;durP1;ratioP1;P1;durP2;ratioP2;P2;SDS_P1;SDS_P2;PMS_P1;PMS_P2;Temp;Humidity;BMP_temperature;BMP_pressure;BME280_temperature;BME280_humidity;BME280_pressure;Samples;Min_cycle;Max_cycle;Signal;HPM_P1;HPM_P2
2023/04/03 00:01:28;;;;;;;10.90;6.10;;;;;;;1.04;100.00;102894.63;5049477;28;20071;-68
2023/04/03 00:03:54;;;;;;;14.25;7.35;;;;;;;1.11;100.00;102903.03;5049547;28;20033;-68
2023/04/03 00:06:20;;;;;;;13.07;6.43;;;;;;;1.12;100.00;102899.47;5049383;28;20032;-68
2023/04/03 00:08:45;;;;;;;13.65;6.18;;;;;;;1.14;100.00;102908.09;5049217;28;20029;-68
2023/04/03 00:11:10;;;;;;;10.80;6.55;;;;;;;1.15;100.00;102914.22;5049072;28;20033;-68
2023/04/03 00:13:37;;;;;;;11.95;6.88;;;;;;;1.05;100.00;102909.47;5049145;28;20052;-68
2023/04/03 00:16:03;;;;;;;12.48;6.38;;;;;;;1.08;100.00;102911.09;5047905;28;20069;-68
2023/04/03 00:18:28;;;;;;;9.57;6.22;;;;;;;1.03;100.00;102919.22;5049216;28;20631;-68
2023/04/03 00:20:54;;;;;;;12.60;6.70;;;;;;;0.99;100.00;102906.31;5049219;28;20082;-68
2023/04/03 00:23:19;;;;;;;12.18;6.55;;;;;;;1.02;100.00;102917.53;5049277;28;20043;-68
2023/04/03 00:25:44;;;;;;;11.82;6.45;;;;;;;0.99;100.00;102920.28;5048976;28;20029;-68
2023/04/03 00:28:10;;;;;;;10.43;5.25;;;;;;;0.94;100.00;102910.97;5049131;28;20035;-68
2023/04/03 00:30:36;;;;;;;15.18;6.15;;;;;;;0.94;100.00;102914.44;5048955;28;20021;-68
2023/04/03 00:33:01;;;;;;;11.95;6.75;;;;;;;0.94;100.00;102914.44;5049215;28;20056;-68
2023/04/03 00:35:27;;;;;;;11.40;6.85;;;;;;;0.95;100.00;102908.28;5049084;28;20018;-68
2023/04/03 00:37:55;;;;;;;12.82;6.10;;;;;;;1.01;100.00;102914.97;5049018;28;20037;-68
2023/04/03 00:40:21;;;;;;;13.35;6.13;;;;;;;1.03;100.00;102918.38;5049051;28;20032;-68
2023/04/03 00:42:48;;;;;;;12.35;6.63;;;;;;;1.06;100.00;102921.66;5049067;28;20506;-68
2023/04/03 00:45:35;;;;;;;13.63;6.28;;;;;;;1.06;100.00;102921.66;5048790;28;20106;-68
2023/04/03 00:48:06;;;;;;;12.45;5.35;;;;;;;1.11;100.00;102928.47;5048957;28;20033;-68
2023/04/03 00:50:34;;;;;;;12.48;6.75;;;;;;;1.11;100.00;102931.09;5048757;28;20056;-68
2023/04/03 00:53:00;;;;;;;11.80;6.82;;;;;;;1.15;100.00;102928.19;5048852;28;20606;-68
2023/04/03 00:55:25;;;;;;;9.43;5.55;;;;;;;1.21;100.00;102934.91;5048845;28;20055;-68
2023/04/03 00:57:52;;;;;;;13.93;6.55;;;;;;;1.25;100.00;102936.44;5048706;28;20056;-68
2023/04/03 01:00:20;;;;;;;12.55;6.53;;;;;;;1.28;100.00;102939.75;5048846;28;20440;-68
2023/04/03 01:02:45;;;;;;;12.60;6.65;;;;;;;1.23;100.00;102919.88;5048801;28;20028;-68
2023/04/03 01:05:12;;;;;;;12.07;6.53;;;;;;;1.34;100.00;102935.06;5048646;28;20528;-68
2023/04/03 01:07:39;;;;;;;12.95;7.97;;;;;;;1.35;100.00;102937.63;5048681;28;20039;-68
2023/04/03 01:10:08;;;;;;;11.30;6.50;;;;;;;1.36;100.00;102933.19;5048683;28;20484;-68
2023/04/03 01:12:39;;;;;;;15.38;6.97;;;;;;;1.37;100.00;102930.50;5048657;28;20467;-68
2023/04/03 01:15:30;;;;;;;13.80;6.38;;;;;;;1.39;100.00;102938.28;5048686;28;20074;-68
2023/04/03 01:17:57;;;;;;;12.07;6.57;;;;;;;1.39;100.00;102944.41;5048641;28;20476;-68
2023/04/03 01:20:31;;;;;;;12.23;7.78;;;;;;;1.40;100.00;102945.25;5048456;28;20036;-68
2023/04/03 01:23:08;;;;;;;12.52;6.53;;;;;;;1.37;100.00;102942.81;5048148;28;20037;-68
2023/04/03 01:25:45;;;;;;;13.10;7.00;;;;;;;1.37;100.00;102943.66;5051939;28;20025;-68
2023/04/03 01:28:18;;;;;;;10.73;6.18;;;;;;;1.36;100.00;102938.47;5051812;28;20388;-68
2023/04/03 01:31:03;;;;;;;8.02;5.00;;;;;;;1.35;100.00;102944.66;5051971;28;20040;-68
2023/04/03 01:33:29;;;;;;;10.18;5.05;;;;;;;1.33;100.00;102938.63;5051287;28;20041;-68
2023/04/03 01:35:54;;;;;;;10.02;5.15;;;;;;;1.30;100.00;102940.50;5052061;28;20106;-68
2023/04/03 01:38:20;;;;;;;8.95;5.15;;;;;;;1.28;100.00;102937.13;5052247;28;20047;-68
2023/04/03 01:40:46;;;;;;;10.45;5.15;;;;;;;1.30;100.00;102937.03;5051757;28;20504;-68
2023/04/03 01:43:11;;;;;;;10.13;5.28;;;;;;;1.26;100.00;102938.97;5051843;28;20480;-68
2023/04/03 01:45:36;;;;;;;11.82;6.60;;;;;;;1.27;100.00;102943.28;5051694;28;20508;-68
2023/04/03 01:48:02;;;;;;;10.25;5.43;;;;;;;1.25;100.00;102937.25;5051656;28;20040;-68
2023/04/03 01:50:27;;;;;;;9.93;5.03;;;;;;;1.27;100.00;102942.44;5051503;28;20041;-68
2023/04/03 01:52:52;;;;;;;8.32;4.90;;;;;;;1.25;100.00;102939.91;5051847;28;20116;-68
2023/04/03 01:55:18;;;;;;;8.40;5.40;;;;;;;1.25;100.00;102937.25;5051676;28;20025;-68
2023/04/03 01:57:43;;;;;;;8.07;4.50;;;;;;;1.24;100.00;102943.47;5051488;28;20442;-68
2023/04/03 02:00:09;;;;;;;7.63;4.57;;;;;;;1.24;100.00;102946.09;5051382;28;20056;-68
2023/04/03 02:02:34;;;;;;;8.80;4.88;;;;;;;1.25;100.00;102941.69;5051461;28;20052;-68
2023/04/03 02:05:00;;;;;;;9.55;4.97;;;;;;;1.27;100.00;102945.91;5051407;28;20032;-68
2023/04/03 02:07:25;;;;;;;7.85;4.85;;;;;;;1.27;100.00;102948.56;5051209;28;20563;-68
2023/04/03 02:09:51;;;;;;;10.73;4.25;;;;;;;1.31;100.00;102944.00;5051080;28;20070;-68
2023/04/03 02:12:16;;;;;;;8.38;4.68;;;;;;;1.30;100.00;102945.75;5051303;28;20472;-68
2023/04/03 02:14:41;;;;;;;11.48;5.43;;;;;;;1.28;100.00;102952.91;5051428;28;20029;-68
2023/04/03 02:17:08;;;;;;;7.57;4.30;;;;;;;1.28;100.00;102957.28;5051223;28;20029;-68
2023/04/03 02:19:35;;;;;;;7.53;4.72;;;;;;;1.20;100.00;102946.34;5051224;28;20494;-68
2023/04/03 02:22:01;;;;;;;7.50;3.95;;;;;;;1.25;100.00;102962.72;5050677;28;20047;-68
2023/04/03 02:24:27;;;;;;;12.10;4.97;;;;;;;1.22;100.00;102950.59;5051378;28;20024;-68
2023/04/03 02:26:52;;;;;;;10.88;5.15;;;;;;;1.19;100.00;102963.91;5050832;28;20044;-68
2023/04/03 02:29:18;;;;;;;8.38;4.50;;;;;;;1.19;100.00;102963.06;5050870;28;20400;-68
2023/04/03 02:31:43;;;;;;;7.57;4.60;;;;;;;1.16;100.00;102961.44;5050892;28;20475;-68
2023/04/03 02:34:08;;;;;;;5.13;3.35;;;;;;;1.16;100.00;102960.59;5050566;28;20071;-68
2023/04/03 02:36:34;;;;;;;6.78;3.90;;;;;;;1.11;100.00;102957.38;5050843;28;20032;-68
2023/04/03 02:38:59;;;;;;;9.68;4.95;;;;;;;1.14;100.00;102965.06;5050834;28;20025;-68
2023/04/03 02:41:27;;;;;;;7.60;4.40;;;;;;;1.13;100.00;102969.50;5050767;28;20042;-68
2023/04/03 02:43:52;;;;;;;6.07;3.88;;;;;;;1.14;100.00;102967.72;5049363;28;20041;-68
2023/04/03 02:46:18;;;;;;;10.52;4.60;;;;;;;1.13;100.00;102971.25;5050640;28;20349;-68
2023/04/03 02:48:43;;;;;;;8.13;3.70;;;;;;;1.12;100.00;102969.56;5050442;28;20037;-68
2023/04/03 02:51:09;;;;;;;7.07;3.78;;;;;;;1.08;100.00;102961.84;5050246;28;20597;-68
2023/04/03 02:53:34;;;;;;;5.28;3.70;;;;;;;1.06;100.00;102963.69;5050549;28;20472;-68
2023/04/03 02:55:59;;;;;;;9.75;3.42;;;;;;;1.06;100.00;102973.38;5050504;28;20033;-68
2023/04/03 02:58:25;;;;;;;6.35;3.20;;;;;;;1.04;100.00;102972.59;5050456;28;20025;-68
2023/04/03 03:00:50;;;;;;;8.40;3.47;;;;;;;1.05;100.00;102969.06;5050081;28;20056;-68
2023/04/03 03:03:15;;;;;;;7.68;4.00;;;;;;;1.03;100.00;102968.28;5050097;28;20032;-68
2023/04/03 03:05:41;;;;;;;7.10;3.33;;;;;;;0.99;100.00;102970.22;5050249;28;20025;-68
2023/04/03 03:08:06;;;;;;;8.00;3.92;;;;;;;1.00;100.00;102974.56;5050064;28;20032;-68
2023/04/03 03:10:31;;;;;;;7.72;3.63;;;;;;;0.99;100.00;102970.22;5049878;28;20495;-68
2023/04/03 03:12:57;;;;;;;6.28;3.88;;;;;;;0.99;100.00;102966.75;5050610;28;20410;-68
2023/04/03 03:15:22;;;;;;;7.63;4.13;;;;;;;0.96;100.00;102973.00;5049954;28;20053;-68
2023/04/03 03:17:47;;;;;;;5.97;3.58;;;;;;;0.94;100.00;102964.34;5050018;28;20085;-68
2023/04/03 03:20:16;;;;;;;4.80;3.10;;;;;;;0.93;100.00;102967.06;5049995;28;20040;-68
2023/04/03 03:22:41;;;;;;;7.15;3.17;;;;;;;0.92;100.00;102966.22;5050343;28;20070;-68
2023/04/03 03:25:07;;;;;;;8.05;3.47;;;;;;;0.91;100.00;102969.78;5049959;28;20111;-68
2023/04/03 03:27:32;;;;;;;8.35;3.20;;;;;;;0.90;100.00;102970.72;5049682;28;20533;-68
2023/04/03 03:29:57;;;;;;;7.18;3.17;;;;;;;0.88;100.00;102976.03;5049564;28;20033;-68
2023/04/03 03:32:23;;;;;;;6.93;3.65;;;;;;;0.87;100.00;102979.59;5049876;28;20025;-68
2023/04/03 03:34:48;;;;;;;6.80;2.97;;;;;;;0.87;100.00;102976.13;5049708;28;20490;-68
2023/04/03 03:37:14;;;;;;;3.83;2.55;;;;;;;0.85;100.00;102978.84;5048242;28;20028;-68
2023/04/03 03:39:39;;;;;;;5.88;2.83;;;;;;;0.83;100.00;102977.22;5049571;28;20028;-68
2023/04/03 03:42:05;;;;;;;6.05;3.38;;;;;;;0.78;100.00;102973.97;5049419;28;20049;-68
2023/04/03 03:44:30;;;;;;;4.65;2.85;;;;;;;0.79;100.00;102987.03;5049408;28;20021;-68
2023/04/03 03:46:56;;;;;;;4.53;3.28;;;;;;;0.77;100.00;102990.69;5048522;28;20120;-68
2023/04/03 03:49:21;;;;;;;5.40;3.17;;;;;;;0.69;100.00;102983.19;5049417;28;20068;-68
2023/04/03 03:51:47;;;;;;;5.30;2.85;;;;;;;0.70;100.00;102992.75;5049247;28;20049;-68
2023/04/03 03:54:13;;;;;;;8.60;3.80;;;;;;;0.69;100.00;102987.59;5049432;28;20037;-68
2023/04/03 03:56:38;;;;;;;5.15;2.70;;;;;;;0.68;100.00;102988.50;5049295;28;20033;-68
2023/04/03 03:59:03;;;;;;;7.43;3.78;;;;;;;0.58;100.00;102989.00;5049213;28;20541;-68
2023/04/03 04:01:29;;;;;;;7.28;2.90;;;;;;;0.61;100.00;102991.47;5047896;28;20132;-68
2023/04/03 04:03:55;;;;;;;5.95;3.20;;;;;;;0.60;100.00;102992.41;5049143;28;20025;-68
2023/04/03 04:06:21;;;;;;;7.32;3.33;;;;;;;0.56;100.00;103000.50;5049164;28;20098;-68
2023/04/03 04:08:46;;;;;;;5.22;3.63;;;;;;;0.56;100.00;102997.88;5049241;28;20064;-68
2023/04/03 04:11:11;;;;;;;4.35;3.08;;;;;;;0.56;100.00;103008.38;5049145;28;20025;-68
2023/04/03 04:13:37;;;;;;;5.65;2.88;;;;;;;0.55;100.00;103007.53;5047796;28;20036;-68
2023/04/03 04:16:02;;;;;;;6.55;3.10;;;;;;;0.53;100.00;103003.28;5049184;28;20446;-68
2023/04/03 04:18:28;;;;;;;5.18;2.38;;;;;;;0.52;100.00;102997.16;5049015;28;20087;-69
2023/04/03 04:20:53;;;;;;;5.15;3.35;;;;;;;0.46;100.00;103005.38;5049048;28;20368;-68
2023/04/03 04:23:19;;;;;;;4.65;2.72;;;;;;;0.49;100.00;103018.34;5047834;28;20071;-68
2023/04/03 04:25:46;;;;;;;5.65;3.08;;;;;;;0.44;100.00;103005.44;5049080;28;20082;-68
2023/04/03 04:28:11;;;;;;;7.55;2.83;;;;;;;0.47;100.00;103006.22;5048977;28;20033;-69
2023/04/03 04:30:37;;;;;;;5.53;3.05;;;;;;;0.45;100.00;103008.94;5048972;28;20039;-68
2023/04/03 04:33:03;;;;;;;4.38;2.63;;;;;;;0.43;100.00;103008.16;5049034;28;20037;-69
2023/04/03 04:35:28;;;;;;;7.88;4.95;;;;;;;0.41;100.00;103004.75;5048802;28;20050;-68
2023/04/03 04:37:54;;;;;;;5.30;2.90;;;;;;;0.40;100.00;103008.31;5048919;28;20080;-68
2023/04/03 04:40:20;;;;;;;6.88;3.08;;;;;;;0.36;100.00;102998.88;5048905;28;20492;-68
2023/04/03 04:42:46;;;;;;;7.57;3.42;;;;;;;0.38;100.00;103013.63;5048721;28;20033;-68
2023/04/03 04:45:11;;;;;;;6.57;2.65;;;;;;;0.38;100.00;103011.00;5048828;28;20027;-68
2023/04/03 04:47:36;;;;;;;5.35;3.35;;;;;;;0.39;100.00;103014.47;5049011;28;20405;-68
2023/04/03 04:50:02;;;;;;;6.82;3.25;;;;;;;0.37;100.00;103022.44;5048497;28;20528;-68
2023/04/03 04:52:27;;;;;;;8.02;3.15;;;;;;;0.35;100.00;103011.16;5048643;28;20039;-68
2023/04/03 04:54:52;;;;;;;6.35;3.28;;;;;;;0.37;100.00;103029.47;5048801;28;20045;-68
2023/04/03 04:57:18;;;;;;;7.63;3.80;;;;;;;0.36;100.00;103014.63;5047307;28;20037;-68
2023/04/03 04:59:43;;;;;;;7.88;2.67;;;;;;;0.35;100.00;103018.19;5052533;28;20110;-68
2023/04/03 05:02:09;;;;;;;4.53;2.50;;;;;;;0.38;100.00;103026.75;5052575;28;20032;-70
2023/04/03 05:04:34;;;;;;;8.32;2.85;;;;;;;0.37;100.00;103026.84;5052717;28;20047;-70
2023/04/03 05:06:59;;;;;;;6.70;2.83;;;;;;;0.37;100.00;103022.44;5050996;28;20025;-71
2023/04/03 05:09:25;;;;;;;6.82;2.63;;;;;;;0.36;100.00;103020.72;5052471;28;20033;-71
2023/04/03 05:11:50;;;;;;;8.07;2.75;;;;;;;0.38;100.00;103021.50;5052333;28;20399;-71
2023/04/03 05:14:16;;;;;;;9.43;3.10;;;;;;;0.35;100.00;103023.44;5052366;28;20077;-71
2023/04/03 05:16:41;;;;;;;3.78;2.42;;;;;;;0.36;100.00;103020.72;5052224;28;20029;-71
2023/04/03 05:19:07;;;;;;;10.20;3.25;;;;;;;0.29;100.00;103018.47;5052309;28;20129;-71
2023/04/03 05:21:32;;;;;;;4.45;2.45;;;;;;;0.30;100.00;103022.81;5051984;28;20036;-69
2023/04/03 05:24:02;;;;;;;4.50;3.13;;;;;;;0.31;100.00;103027.13;5051719;28;20626;-68
2023/04/03 05:26:31;;;;;;;6.32;2.70;;;;;;;0.30;100.00;103028.91;5052273;28;20606;-69
2023/04/03 05:28:57;;;;;;;9.00;3.67;;;;;;;0.32;100.00;103037.56;5051833;28;20033;-70
2023/04/03 05:31:23;;;;;;;6.45;2.55;;;;;;;0.32;100.00;103028.84;5052155;28;20032;-70
2023/04/03 05:33:48;;;;;;;6.40;2.60;;;;;;;0.36;100.00;103040.88;5052117;28;20468;-70
2023/04/03 05:36:14;;;;;;;3.75;2.67;;;;;;;0.34;100.00;103032.22;5051892;28;20119;-70
2023/04/03 05:38:39;;;;;;;3.35;2.42;;;;;;;0.39;100.00;103030.22;5051758;28;20020;-68
2023/04/03 05:41:05;;;;;;;4.30;2.92;;;;;;;0.36;100.00;103039.09;5051759;28;20032;-69
2023/04/03 05:43:31;;;;;;;5.00;3.13;;;;;;;0.40;100.00;103037.19;5051840;28;20032;-69
2023/04/03 05:45:56;;;;;;;8.15;2.58;;;;;;;0.41;100.00;103041.50;5051903;28;20037;-68
2023/04/03 05:48:21;;;;;;;9.07;3.72;;;;;;;0.43;100.00;103047.53;5051582;28;20039;-68
2023/04/03 05:50:47;;;;;;;8.50;4.10;;;;;;;0.46;100.00;103046.53;5051032;28;20049;-69
2023/04/03 05:53:20;;;;;;;8.48;3.13;;;;;;;0.50;100.00;103050.69;5042311;28;21379;-69
2023/04/03 05:55:46;;;;;;;7.63;3.13;;;;;;;0.51;100.00;103053.25;5036765;28;20018;-71
2023/04/03 05:58:11;;;;;;;9.13;3.42;;;;;;;0.56;100.00;103053.84;5037064;28;20056;-69
2023/04/03 06:00:37;;;;;;;7.03;3.45;;;;;;;0.65;100.00;103057.78;5036194;28;20032;-70
2023/04/03 06:03:02;;;;;;;5.80;3.28;;;;;;;0.71;100.00;103064.50;5036408;28;20357;-69
2023/04/03 06:05:28;;;;;;;7.05;3.47;;;;;;;0.74;100.00;103061.75;5035827;28;20044;-70
2023/04/03 06:07:54;;;;;;;7.35;3.50;;;;;;;0.79;100.00;103067.63;5036915;28;20021;-70
2023/04/03 06:10:19;;;;;;;6.00;3.05;;;;;;;0.86;100.00;103061.09;5035174;28;20035;-71
2023/04/03 06:12:45;;;;;;;4.65;2.30;;;;;;;1.00;100.00;103061.25;5036829;28;20027;-68
2023/04/03 06:15:11;;;;;;;8.02;2.78;;;;;;;1.16;100.00;103066.56;5037001;28;20041;-68
2023/04/03 06:17:37;;;;;;;6.93;2.70;;;;;;;1.21;100.00;103072.44;5036246;28;20041;-68
2023/04/03 06:20:03;;;;;;;4.57;2.55;;;;;;;1.26;100.00;103064.31;5036604;28;20473;-67
2023/04/03 06:22:29;;;;;;;7.78;3.40;;;;;;;1.28;100.00;103065.94;5036740;28;20107;-68
2023/04/03 06:24:56;;;;;;;5.07;3.05;;;;;;;1.30;100.00;103073.72;5036756;28;20052;-67
2023/04/03 06:27:21;;;;;;;6.63;3.28;;;;;;;1.36;100.00;103072.53;5041682;28;20503;-67
2023/04/03 06:29:48;;;;;;;5.38;2.38;;;;;;;1.48;100.00;103085.88;5050265;28;20037;-68
2023/04/03 06:32:14;;;;;;;8.98;3.38;;;;;;;1.54;100.00;103074.19;5049827;28;20395;-68
2023/04/03 06:34:39;;;;;;;9.25;3.20;;;;;;;1.54;100.00;103076.81;5051144;28;20028;-68
2023/04/03 06:37:05;;;;;;;2.25;2.03;;;;;;;1.54;100.00;103082.06;5050980;28;20115;-68
2023/04/03 06:39:30;;;;;;;2.88;2.10;;;;;;;1.60;100.00;103086.16;5050792;28;20025;-68
2023/04/03 06:41:55;;;;;;;4.38;2.15;;;;;;;1.82;100.00;103084.06;5050750;28;20114;-68
2023/04/03 06:44:21;;;;;;;6.65;3.30;;;;;;;2.08;100.00;103079.97;5050449;28;20064;-68
2023/04/03 06:46:46;;;;;;;8.07;3.08;;;;;;;2.19;98.84;103088.09;5050508;28;20040;-68
2023/04/03 06:49:12;;;;;;;7.50;3.58;;;;;;;2.12;97.67;103088.53;5050584;28;20470;-68
2023/04/03 06:51:37;;;;;;;6.43;2.03;;;;;;;1.99;98.70;103093.63;5050477;28;20135;-68
2023/04/03 06:54:05;;;;;;;3.53;2.10;;;;;;;1.92;99.15;103101.03;5050713;28;20039;-68
2023/04/03 06:56:31;;;;;;;4.45;1.88;;;;;;;1.85;99.29;103099.66;5050728;28;20059;-68
2023/04/03 06:59:00;;;;;;;8.40;2.13;;;;;;;1.86;99.85;103090.84;5050127;28;20074;-68
2023/04/03 07:01:27;;;;;;;8.60;2.70;;;;;;;2.11;98.22;103100.00;5050530;28;20135;-68
2023/04/03 07:03:53;;;;;;;6.97;2.72;;;;;;;2.14;97.70;103103.31;5050497;28;20036;-68
2023/04/03 07:06:19;;;;;;;10.10;3.13;;;;;;;2.10;98.44;103111.50;5050663;28;20025;-68
2023/04/03 07:08:45;;;;;;;4.63;1.98;;;;;;;2.06;98.19;103102.91;5050097;28;20032;-70
2023/04/03 07:11:12;;;;;;;7.10;2.47;;;;;;;2.05;98.88;103110.91;5050257;28;20029;-68
2023/04/03 07:13:38;;;;;;;6.38;2.70;;;;;;;2.06;99.29;103110.78;5050082;28;20029;-68
2023/04/03 07:16:05;;;;;;;7.78;3.45;;;;;;;2.09;99.08;103120.31;5050129;28;20186;-67
2023/04/03 07:18:31;;;;;;;5.50;1.90;;;;;;;2.10;97.62;103120.22;5049660;28;20025;-67
2023/04/03 07:20:57;;;;;;;4.30;2.58;;;;;;;2.11;97.40;103119.28;5050183;28;20032;-68
2023/04/03 07:23:23;;;;;;;7.57;2.20;;;;;;;2.13;96.81;103125.31;5049963;28;20378;-68
2023/04/03 07:25:50;;;;;;;4.28;1.80;;;;;;;2.14;96.45;103115.63;5050341;28;20464;-68
2023/04/03 07:28:17;;;;;;;3.85;1.80;;;;;;;2.21;97.49;103117.00;5049833;28;20021;-68
2023/04/03 07:30:48;;;;;;;5.20;1.70;;;;;;;2.36;96.50;103125.81;5049897;28;20029;-69
2023/04/03 07:33:15;;;;;;;5.82;2.38;;;;;;;2.45;95.71;103119.19;5049886;28;20124;-69
2023/04/03 07:35:42;;;;;;;4.05;2.38;;;;;;;2.51;95.11;103124.94;5050003;28;20056;-69
2023/04/03 07:38:07;;;;;;;7.05;1.95;;;;;;;2.59;96.84;103132.41;5049829;28;20158;-68
2023/04/03 07:40:33;;;;;;;3.70;2.10;;;;;;;2.64;95.60;103131.19;5049788;28;20045;-70
2023/04/03 07:42:59;;;;;;;7.35;2.60;;;;;;;2.62;95.50;103127.81;5049585;28;20082;-70
2023/04/03 07:45:25;;;;;;;6.78;2.88;;;;;;;2.67;94.34;103127.53;5036205;28;20469;-68
2023/04/03 07:47:51;;;;;;;7.60;2.90;;;;;;;2.74;96.02;103125.41;5035102;28;20056;-70
2023/04/03 07:50:17;;;;;;;5.40;2.85;;;;;;;2.90;94.46;103133.25;5033321;28;20078;-70
2023/04/03 07:52:45;;;;;;;4.40;2.67;;;;;;;2.90;93.21;103136.75;5034855;28;20503;-70
2023/04/03 07:55:10;;;;;;;4.70;2.90;;;;;;;2.87;92.71;103122.91;5033747;28;20037;-69
2023/04/03 07:57:36;;;;;;;5.38;2.72;;;;;;;3.01;94.03;103138.75;5040832;28;20094;-69
2023/04/03 08:00:02;;;;;;;5.88;2.92;;;;;;;3.07;92.46;103141.88;5048148;28;20437;-70
2023/04/03 08:02:28;;;;;;;5.35;2.35;;;;;;;3.07;90.88;103139.25;5048509;28;20025;-68
2023/04/03 08:04:53;;;;;;;6.95;1.85;;;;;;;3.12;90.56;103140.75;5048551;28;20027;-68
2023/04/03 08:07:18;;;;;;;4.55;2.40;;;;;;;3.15;90.47;103144.06;5048206;28;20590;-68
2023/04/03 08:09:44;;;;;;;3.53;2.20;;;;;;;3.22;89.87;103144.53;5048401;28;20618;-68
2023/04/03 08:12:11;;;;;;;4.43;1.80;;;;;;;3.44;89.64;103142.31;5047788;28;20059;-68
2023/04/03 08:14:36;;;;;;;4.03;1.67;;;;;;;3.70;85.23;103139.88;5047839;28;20037;-68
2023/04/03 08:17:04;;;;;;;4.97;2.03;;;;;;;4.05;83.48;103136.78;5048456;28;20462;-68
2023/04/03 08:19:30;;;;;;;9.05;2.28;;;;;;;5.00;81.39;103133.19;5046873;28;20440;-68
2023/04/03 08:21:57;;;;;;;3.78;2.05;;;;;;;6.18;73.95;103140.00;5048319;28;20120;-68
2023/04/03 08:24:22;;;;;;;3.85;1.88;;;;;;;6.93;70.13;103142.41;5048647;28;20049;-68
2023/04/03 08:26:48;;;;;;;4.15;1.40;;;;;;;7.23;67.38;103136.56;5049189;28;20064;-68
2023/04/03 08:29:13;;;;;;;3.13;1.20;;;;;;;7.50;63.85;103138.06;5049084;28;20040;-68
2023/04/03 08:31:38;;;;;;;4.88;1.25;;;;;;;7.53;62.11;103138.66;5048973;28;20179;-68
2023/04/03 08:34:05;;;;;;;3.08;1.77;;;;;;;7.56;64.06;103140.22;5052021;28;20029;-68
2023/04/03 08:36:30;;;;;;;2.30;1.33;;;;;;;7.57;62.94;103148.09;5053093;28;20047;-68
2023/04/03 08:38:56;;;;;;;2.42;1.60;;;;;;;6.70;62.03;103144.13;5053100;28;20035;-68
2023/04/03 08:41:39;;;;;;;2.35;1.90;;;;;;;5.93;68.63;103142.63;5052960;28;20037;-68
2023/04/03 08:44:15;;;;;;;5.07;1.42;;;;;;;5.60;71.21;103152.91;5052834;28;20052;-68
2023/04/03 08:47:34;;;;;;;2.88;1.80;;;;;;;5.27;72.19;103155.16;5053035;28;20093;-68
2023/04/03 08:50:05;;;;;;;2.17;1.23;;;;;;;5.04;69.85;103145.28;5050240;28;20091;-68
2023/04/03 08:52:51;;;;;;;5.13;2.00;;;;;;;4.92;69.44;103148.75;5052479;28;20053;-68
2023/04/03 08:55:31;;;;;;;3.03;1.30;;;;;;;4.80;69.85;103145.13;5052704;28;20033;-68
2023/04/03 08:58:24;;;;;;;5.15;2.20;;;;;;;4.81;71.22;103146.81;5052205;28;20040;-68
2023/04/03 09:01:03;;;;;;;3.15;1.35;;;;;;;4.83;67.21;103145.75;5052466;28;20040;-68
2023/04/03 09:03:36;;;;;;;4.10;1.50;;;;;;;4.89;69.36;103149.78;5052626;28;20353;-68
2023/04/03 09:06:20;;;;;;;4.63;1.33;;;;;;;4.91;65.34;103150.53;5052541;28;20020;-68
2023/04/03 09:08:49;;;;;;;4.78;1.45;;;;;;;4.94;64.59;103150.34;5052348;28;20028;-68
2023/04/03 09:11:23;;;;;;;1.60;1.20;;;;;;;4.99;63.99;103157.97;5052111;28;20123;-68
2023/04/03 09:14:14;;;;;;;5.43;2.13;;;;;;;5.05;61.04;103165.47;5052420;28;20032;-68
2023/04/03 09:16:58;;;;;;;4.38;1.25;;;;;;;5.05;59.27;103157.53;5052613;28;20124;-68
2023/04/03 09:19:45;;;;;;;2.20;1.40;;;;;;;5.07;62.16;103153.00;5052404;28;20028;-69
2023/04/03 09:22:19;;;;;;;1.20;1.10;;;;;;;5.24;63.54;103160.66;5052278;28;20484;-68
2023/04/03 09:24:49;;;;;;;2.67;1.10;;;;;;;5.42;58.63;103160.31;5052116;28;20033;-68
2023/04/03 09:27:15;;;;;;;1.30;0.80;;;;;;;5.45;56.00;103162.78;5052186;28;20020;-68
2023/04/03 09:29:45;;;;;;;3.72;1.10;;;;;;;5.44;54.31;103174.31;5052068;28;20408;-68
2023/04/03 09:32:34;;;;;;;1.33;1.17;;;;;;;5.53;55.37;103164.88;5050860;28;20047;-68
2023/04/03 09:35:10;;;;;;;1.45;0.80;;;;;;;5.48;52.04;103162.56;5052096;28;20647;-69
2023/04/03 09:37:45;;;;;;;3.28;1.25;;;;;;;5.54;52.92;103156.00;5051971;28;20029;-68
2023/04/03 09:40:35;;;;;;;3.15;0.93;;;;;;;5.66;49.49;103160.44;5051919;28;20021;-68
2023/04/03 09:43:16;;;;;;;2.33;0.60;;;;;;;5.66;50.05;103157.81;5051780;28;20484;-69
2023/04/03 09:45:42;;;;;;;3.08;0.88;;;;;;;5.64;46.83;103155.25;5050560;28;20040;-69
2023/04/03 09:48:13;;;;;;;1.33;0.70;;;;;;;5.62;45.52;103154.50;5051679;28;20063;-68
2023/04/03 09:50:58;;;;;;;3.60;0.75;;;;;;;5.68;46.12;103148.75;5051595;28;20036;-68
2023/04/03 09:53:33;;;;;;;1.15;0.93;;;;;;;5.73;48.95;103132.56;5051619;28;20488;-69
2023/04/03 09:56:00;;;;;;;0.93;0.80;;;;;;;5.81;45.99;103138.16;5051558;28;20480;-68
2023/04/03 09:58:40;;;;;;;1.38;0.88;;;;;;;5.85;45.75;103136.16;5051566;28;20036;-68
2023/04/03 10:01:06;;;;;;;1.65;0.93;;;;;;;5.88;46.81;103126.19;5051511;28;20025;-68
2023/04/03 10:03:36;;;;;;;0.98;0.85;;;;;;;5.85;44.58;103122.91;5051524;28;20082;-68
2023/04/03 10:06:03;;;;;;;3.05;0.82;;;;;;;5.98;46.74;103128.22;5051182;28;20039;-68
2023/04/03 10:08:34;;;;;;;2.00;0.80;;;;;;;6.07;47.33;103125.72;5051635;28;20484;-68
2023/04/03 10:11:12;;;;;;;0.80;0.75;;;;;;;6.11;46.36;103129.03;5050924;28;20480;-68
2023/04/03 10:14:02;;;;;;;2.60;0.73;;;;;;;6.14;47.12;103121.69;5051589;28;20466;-68
2023/04/03 10:16:52;;;;;;;0.60;0.60;;;;;;;6.24;43.53;103128.97;5051683;28;20442;-68
2023/04/03 10:19:47;;;;;;;0.70;0.70;;;;;;;6.30;47.07;103102.03;5051521;28;20471;-69
2023/04/03 10:22:32;;;;;;;1.95;0.60;;;;;;;6.47;44.45;103129.91;5050468;28;20648;-68
2023/04/03 10:24:58;;;;;;;0.60;0.50;;;;;;;6.38;42.45;103134.09;5051209;28;20040;-68
2023/04/03 10:27:38;;;;;;;1.02;0.80;;;;;;;6.34;43.82;103114.94;5051182;28;20086;-68
2023/04/03 10:30:15;;;;;;;0.80;0.75;;;;;;;6.35;39.52;103116.63;5051022;28;20112;-68
2023/04/03 10:32:54;;;;;;;1.20;0.80;;;;;;;6.41;41.68;103111.84;5051197;28;20031;-68
2023/04/03 10:35:47;;;;;;;6.10;0.70;;;;;;;6.47;40.74;103104.28;5051172;28;20028;-68
2023/04/03 10:38:32;;;;;;;3.40;1.33;;;;;;;6.56;40.19;103092.13;5051075;28;20070;-68
2023/04/03 10:41:14;;;;;;;1.90;0.60;;;;;;;6.63;41.48;103096.03;5050900;28;20036;-68
2023/04/03 10:44:08;;;;;;;2.50;0.77;;;;;;;6.65;40.30;103095.91;5050939;28;20108;-68
2023/04/03 10:46:39;;;;;;;3.15;2.05;;;;;;;6.59;41.15;103087.44;5050729;28;20444;-68
2023/04/03 10:49:19;;;;;;;4.43;0.70;;;;;;;6.70;41.91;103075.19;5050298;28;20032;-68
2023/04/03 10:51:48;;;;;;;0.95;0.82;;;;;;;6.71;41.65;103074.25;5050028;28;20102;-68
2023/04/03 10:54:24;;;;;;;1.08;0.55;;;;;;;6.75;43.65;103073.03;5050566;28;20102;-68
2023/04/03 10:57:00;;;;;;;2.80;1.58;;;;;;;6.77;43.81;103077.25;5050521;28;20033;-68
2023/04/03 10:59:38;;;;;;;1.35;0.63;;;;;;;6.84;42.99;103075.00;5050721;28;20075;-68
2023/04/03 11:02:12;;;;;;;1.25;0.60;;;;;;;6.88;43.10;103065.00;5050518;28;20041;-68
2023/04/03 11:04:40;;;;;;;1.17;0.95;;;;;;;7.09;44.18;103065.13;5050723;28;20025;-68
2023/04/03 11:07:26;;;;;;;1.00;0.90;;;;;;;7.27;45.61;103069.00;5050541;28;20111;-69
2023/04/03 11:10:00;;;;;;;1.65;1.10;;;;;;;7.31;41.47;103064.28;5049077;28;20021;-69
2023/04/03 11:12:48;;;;;;;0.75;0.75;;;;;;;7.26;41.12;103059.38;5050477;28;20024;-68
2023/04/03 11:15:17;;;;;;;1.00;0.70;;;;;;;7.19;40.35;103058.16;5050213;28;20025;-68
2023/04/03 11:17:50;;;;;;;2.33;0.80;;;;;;;7.13;40.33;103053.34;5050208;28;20068;-68
2023/04/03 11:20:27;;;;;;;6.22;1.33;;;;;;;7.17;41.82;103060.06;5050511;28;20040;-69
2023/04/03 11:23:17;;;;;;;1.48;0.52;;;;;;;7.30;42.26;103057.31;5048741;28;20383;-69
2023/04/03 11:25:46;;;;;;;2.15;0.68;;;;;;;7.38;38.66;103046.94;5050250;28;20037;-68
2023/04/03 11:28:13;;;;;;;2.28;0.70;;;;;;;7.53;43.25;103037.75;5050117;28;20032;-68
2023/04/03 11:31:00;;;;;;;1.67;0.90;;;;;;;7.69;43.42;103047.97;5049919;28;20064;-69
2023/04/03 11:33:48;;;;;;;0.70;0.70;;;;;;;7.81;40.62;103033.72;5049941;28;20040;-68
2023/04/03 11:36:22;;;;;;;2.05;1.15;;;;;;;7.89;40.78;103031.28;5050042;28;20115;-68